Marco Polo — C6JZ7 — position and weather

sailwx.info

Track history (hours):
 
Tides and Currents Weather Stations Pressure Air Temp Water Temp Dewpoint Dewpoint Depression Visibility Wind Speed Wind Dir Waves Ship Positions

Marco Polo

Operator: Orient Lines

Last reported at 2015-Jul-29 22:10 UTC. Time now 2015-Aug-03 10:40 UTC.
Position N 64°11' W 021°57'.

Type: Ship. MMSI: 308691456.

Date/timePositionNaut miles runAvg speedWind from/ knotsBaromVisibWave heightAir tempDewpointWater temp
2015-Jul-29 22:10N 64°11' W 021°57'3 0.2
2015-Jul-29 06:28N 64°10' W 021°52'  
2015-Jul-26 18:20N 59°03' W 002°29'1114.1
2015-Jul-26 17:33N 59°01' W 002°51'4 4.2
2015-Jul-26 16:33N 59°00' W 002°59'0 0.0
2015-Jul-26 15:33N 59°00' W 002°59'0 0.0
2015-Jul-26 14:32N 59°00' W 002°59'0 0.0
2015-Jul-26 13:32N 59°00' W 002°59'0 0.0
2015-Jul-26 12:31N 59°00' W 002°59'0 0.0
2015-Jul-26 11:31N 59°00' W 002°59'0 0.0
2015-Jul-26 10:33N 59°00' W 002°59'0 0.0
2015-Jul-26 09:33N 59°00' W 002°59'3 3.1
2015-Jul-26 08:33N 59°01' W 002°53'7815.6
2015-Jul-26 03:31N 57°50' W 001°49'1616.8
2015-Jul-26 02:34N 57°35' W 001°39'15616.9
2015-Jul-25 17:17N 55°05' W 000°14'1716.8
2015-Jul-25 16:18N 54°50' W 000°06'1317.0
2015-Jul-25 15:33N 54°38' E 000°01'1716.9
2015-Jul-25 14:33N 54°22' E 000°09'1616.2
2015-Jul-25 13:33N 54°06' E 000°18'1615.5
2015-Jul-25 12:33N 53°53' E 000°33'5513.8
2015-Jul-25 08:33N 53°09' E 001°28'1414.2
2015-Jul-25 07:33N 52°60' E 001°46'2812.9
2015-Jul-25 05:23N 52°36' E 002°09'1214.6
2015-Jul-25 04:33N 52°24' E 002°01'1414.4
2015-Jul-25 03:33N 52°11' E 001°54'1413.7
2015-Jul-25 02:33N 51°57' E 001°50'1010.5
2015-Jul-25 01:33N 51°51' E 001°37'1211.7
2015-Jul-25 00:33N 51°41' E 001°26'1614.2
2015-Jul-24 23:27N 51°32' E 001°06'1416.0
2015-Jul-24 22:33N 51°30' E 000°43'1313.4
2015-Jul-24 21:34N 51°27' E 000°22'0 0.2
2015-Jul-24 20:34N 51°27' E 000°22'0 0.0
2015-Jul-24 19:34N 51°27' E 000°22'0 0.0
2015-Jul-24 18:34N 51°27' E 000°22'0 0.0
2015-Jul-24 17:34N 51°27' E 000°22'0 0.0
2015-Jul-24 16:34N 51°27' E 000°22'0 0.0
2015-Jul-24 15:34N 51°27' E 000°22'1 0.5
2015-Jul-24 14:34N 51°27' E 000°23'1212.3
2015-Jul-24 13:33N 51°30' E 000°42'1616.1
2015-Jul-24 12:33N 51°32' E 001°07'1716.7
2015-Jul-24 11:33N 51°43' E 001°28'1514.9
2015-Jul-24 10:34N 51°55' E 001°43'1616.0
2015-Jul-24 09:34N 52°09' E 001°52'2315.5
2015-Jul-24 08:06N 52°31' E 002°05'2113.3
2015-Jul-24 06:33N 52°51' E 002°04'1515.2
2015-Jul-24 05:34N 53°00' E 001°44'6815.9
2015-Jul-24 01:16N 53°54' E 000°34'1216.7
2015-Jul-24 00:33N 54°04' E 000°22'1717.0
2015-Jul-23 23:33N 54°18' E 000°05'1717.2
2015-Jul-23 22:33N 54°32' W 000°11'1817.6
2015-Jul-23 21:33N 54°47' W 000°27'1817.7
2015-Jul-23 20:33N 55°01' W 000°45'7217.3
2015-Jul-23 16:23N 55°57' W 002°06'1416.5
2015-Jul-23 15:33N 56°04' W 002°27'1616.1
2015-Jul-23 14:33N 56°05' W 002°56'1414.0
2015-Jul-23 13:33N 56°01' W 003°20'2 0.4
2015-Jul-23 08:15N 56°00' W 003°24'710.7
2015-Jul-23 07:33N 56°03' W 003°12'1413.5
2015-Jul-23 06:33N 56°06' W 002°48'1616.0
2015-Jul-23 05:33N 56°02' W 002°20'34216.3
2015-Jul-22 08:33N 54°13' E 007°06'1716.8
2015-Jul-22 07:33N 54°11' E 007°34'1717.5
2015-Jul-22 06:33N 54°03' E 008°00'1615.8
2015-Jul-22 05:33N 53°59' E 008°26'1313.4
2015-Jul-22 04:33N 53°51' E 008°45'1211.7
2015-Jul-22 03:33N 53°52' E 009°05'3 2.6
2015-Jul-22 02:33N 53°54' E 009°09'2 2.4
2015-Jul-22 01:33N 53°55' E 009°12'8 8.1
2015-Jul-22 00:31N 54°03' E 009°18'7 6.8
2015-Jul-21 23:29N 54°09' E 009°23'7 7.9
2015-Jul-21 22:33N 54°12' E 009°34'7 7.4
2015-Jul-21 21:33N 54°18' E 009°42'4 3.7
2015-Jul-21 20:33N 54°21' E 009°46'6 6.3
2015-Jul-21 19:34N 54°20' E 009°57'4 4.1
2015-Jul-21 18:34N 54°22' E 010°03'3 2.9
2015-Jul-21 17:33N 54°22' E 010°08'8 8.0
2015-Jul-21 16:34N 54°29' E 010°16'1514.3
2015-Jul-21 15:31N 54°35' E 010°39'1516.1
2015-Jul-21 14:33N 54°36' E 011°06'1616.0
2015-Jul-21 13:33N 54°30' E 011°31'1615.7
2015-Jul-21 12:33N 54°26' E 011°58'8415.2
2015-Jul-21 07:03N 55°05' E 014°06'816.4
2015-Jul-21 06:33N 55°12' E 014°15'1616.4
2015-Jul-21 05:33N 55°24' E 014°34'1716.5
2015-Jul-21 04:33N 55°34' E 014°58'1616.4
2015-Jul-21 03:33N 55°42' E 015°23'11515.7
2015-Jul-20 20:14N 57°13' E 017°31'  
Track history (hours):
 
Tides and Currents Weather Stations Pressure Air Temp Water Temp Dewpoint Dewpoint Depression Visibility Wind Speed Wind Dir Waves Ship Positions

Marco Polo

Operator: Orient Lines

Last reported at 2015-Jul-29 22:10 UTC. Time now 2015-Aug-03 10:40 UTC.
Position N 64°11' W 021°57'.

Type: Ship. MMSI: 308691456.

Date/timePositionNaut miles runAvg speedWind from/ knotsBaromVisibWave heightAir tempDewpointWater temp
2015-Jul-29 22:10N 64°11' W 021°57'3 0.2
2015-Jul-29 06:28N 64°10' W 021°52'  
2015-Jul-26 18:20N 59°03' W 002°29'1114.1
2015-Jul-26 17:33N 59°01' W 002°51'4 4.2
2015-Jul-26 16:33N 59°00' W 002°59'0 0.0
2015-Jul-26 15:33N 59°00' W 002°59'0 0.0
2015-Jul-26 14:32N 59°00' W 002°59'0 0.0
2015-Jul-26 13:32N 59°00' W 002°59'0 0.0
2015-Jul-26 12:31N 59°00' W 002°59'0 0.0
2015-Jul-26 11:31N 59°00' W 002°59'0 0.0
2015-Jul-26 10:33N 59°00' W 002°59'0 0.0
2015-Jul-26 09:33N 59°00' W 002°59'3 3.1
2015-Jul-26 08:33N 59°01' W 002°53'7815.6
2015-Jul-26 03:31N 57°50' W 001°49'1616.8
2015-Jul-26 02:34N 57°35' W 001°39'15616.9
2015-Jul-25 17:17N 55°05' W 000°14'1716.8
2015-Jul-25 16:18N 54°50' W 000°06'1317.0
2015-Jul-25 15:33N 54°38' E 000°01'1716.9
2015-Jul-25 14:33N 54°22' E 000°09'1616.2
2015-Jul-25 13:33N 54°06' E 000°18'1615.5
2015-Jul-25 12:33N 53°53' E 000°33'5513.8
2015-Jul-25 08:33N 53°09' E 001°28'1414.2
2015-Jul-25 07:33N 52°60' E 001°46'2812.9
2015-Jul-25 05:23N 52°36' E 002°09'1214.6
2015-Jul-25 04:33N 52°24' E 002°01'1414.4
2015-Jul-25 03:33N 52°11' E 001°54'1413.7
2015-Jul-25 02:33N 51°57' E 001°50'1010.5
2015-Jul-25 01:33N 51°51' E 001°37'1211.7
2015-Jul-25 00:33N 51°41' E 001°26'1614.2
2015-Jul-24 23:27N 51°32' E 001°06'1416.0
2015-Jul-24 22:33N 51°30' E 000°43'1313.4
2015-Jul-24 21:34N 51°27' E 000°22'0 0.2
2015-Jul-24 20:34N 51°27' E 000°22'0 0.0
2015-Jul-24 19:34N 51°27' E 000°22'0 0.0
2015-Jul-24 18:34N 51°27' E 000°22'0 0.0
2015-Jul-24 17:34N 51°27' E 000°22'0 0.0
2015-Jul-24 16:34N 51°27' E 000°22'0 0.0
2015-Jul-24 15:34N 51°27' E 000°22'1 0.5
2015-Jul-24 14:34N 51°27' E 000°23'1212.3
2015-Jul-24 13:33N 51°30' E 000°42'1616.1
2015-Jul-24 12:33N 51°32' E 001°07'1716.7
2015-Jul-24 11:33N 51°43' E 001°28'1514.9
2015-Jul-24 10:34N 51°55' E 001°43'1616.0
2015-Jul-24 09:34N 52°09' E 001°52'2315.5
2015-Jul-24 08:06N 52°31' E 002°05'2113.3
2015-Jul-24 06:33N 52°51' E 002°04'1515.2
2015-Jul-24 05:34N 53°00' E 001°44'6815.9
2015-Jul-24 01:16N 53°54' E 000°34'1216.7
2015-Jul-24 00:33N 54°04' E 000°22'1717.0
2015-Jul-23 23:33N 54°18' E 000°05'1717.2
2015-Jul-23 22:33N 54°32' W 000°11'1817.6
2015-Jul-23 21:33N 54°47' W 000°27'1817.7
2015-Jul-23 20:33N 55°01' W 000°45'7217.3
2015-Jul-23 16:23N 55°57' W 002°06'1416.5
2015-Jul-23 15:33N 56°04' W 002°27'1616.1
2015-Jul-23 14:33N 56°05' W 002°56'1414.0
2015-Jul-23 13:33N 56°01' W 003°20'2 0.4
2015-Jul-23 08:15N 56°00' W 003°24'710.7
2015-Jul-23 07:33N 56°03' W 003°12'1413.5
2015-Jul-23 06:33N 56°06' W 002°48'1616.0
2015-Jul-23 05:33N 56°02' W 002°20'34216.3
2015-Jul-22 08:33N 54°13' E 007°06'1716.8
2015-Jul-22 07:33N 54°11' E 007°34'1717.5
2015-Jul-22 06:33N 54°03' E 008°00'1615.8
2015-Jul-22 05:33N 53°59' E 008°26'1313.4
2015-Jul-22 04:33N 53°51' E 008°45'1211.7
2015-Jul-22 03:33N 53°52' E 009°05'3 2.6
2015-Jul-22 02:33N 53°54' E 009°09'2 2.4
2015-Jul-22 01:33N 53°55' E 009°12'8 8.1
2015-Jul-22 00:31N 54°03' E 009°18'7 6.8
2015-Jul-21 23:29N 54°09' E 009°23'7 7.9
2015-Jul-21 22:33N 54°12' E 009°34'7 7.4
2015-Jul-21 21:33N 54°18' E 009°42'4 3.7
2015-Jul-21 20:33N 54°21' E 009°46'6 6.3
2015-Jul-21 19:34N 54°20' E 009°57'4 4.1
2015-Jul-21 18:34N 54°22' E 010°03'3 2.9
2015-Jul-21 17:33N 54°22' E 010°08'8 8.0
2015-Jul-21 16:34N 54°29' E 010°16'1514.3
2015-Jul-21 15:31N 54°35' E 010°39'1516.1
2015-Jul-21 14:33N 54°36' E 011°06'1616.0
2015-Jul-21 13:33N 54°30' E 011°31'1615.7
2015-Jul-21 12:33N 54°26' E 011°58'8415.2
2015-Jul-21 07:03N 55°05' E 014°06'816.4
2015-Jul-21 06:33N 55°12' E 014°15'1616.4
2015-Jul-21 05:33N 55°24' E 014°34'1716.5
2015-Jul-21 04:33N 55°34' E 014°58'1616.4
2015-Jul-21 03:33N 55°42' E 015°23'11515.7
2015-Jul-20 20:14N 57°13' E 017°31'  

Dump ship's entire track history